GAI weather

Montgomery County Airpark
Gaithersburg, Maryland, United States

Public forecast

Using degrees Fahrenheit for public forecast. Weather courtesy of forecast.io.

Current aviation weather report (METAR) for Montgomery County Airpark

Retrieved 2019/10/16 08:56 UTC (46 minutes ago):

KGAI 160856Z AUTO 13004KT 10SM OVC005 14/13 A2993 RMK AO2 SLP146 T01440128 56015

Closest aviation forecast (TAF) to Montgomery County Airpark

Closest forecast is Washington Dulles International Airport, 19.1 nm (35.3 km) SW. Retrieved 2019/10/16 06:33 UTC (3 hours ago):

TAF KIAD 160529Z 1606/1712 16005KT P6SM SCT008 BKN020 FM160700 16005KT P6SM BKN008 OVC020 FM161200 16006KT 5SM -RA OVC020 FM161500 18008KT 2SM RA OVC035 FM162000 30009KT P6SM BKN035 FM162300 30015G32KT P6SM SCT050 FM170900 27012G20KT P6SM SCT080